Time;durP1;ratioP1;P1;durP2;ratioP2;P2;SDS_P1;SDS_P2;PMS_P1;PMS_P2;Temp;Humidity;BMP_temperature;BMP_pressure;BME280_temperature;BME280_humidity;BME280_pressure;Samples;Min_cycle;Max_cycle;Signal;HPM_P1;HPM_P2
2023/10/17 00:00:12;;;;;;;7.60;2.50;;;;;;;;;;5010197;28;20411;-57
2023/10/17 00:02:40;;;;;;;5.88;2.08;;;;;;;;;;5020433;28;20766;-57
2023/10/17 00:05:07;;;;;;;7.03;2.53;;;;;;;;;;5014953;28;20410;-58
2023/10/17 00:07:34;;;;;;;6.95;2.22;;;;;;;;;;5018073;28;20402;-58
2023/10/17 00:10:00;;;;;;;7.18;2.55;;;;;;;;;;5025872;28;20399;-58
2023/10/17 00:12:43;;;;;;;7.33;2.40;;;;;;;;;;5023125;28;20401;-57
2023/10/17 00:15:17;;;;;;;6.00;2.13;;;;;;;;;;5023741;28;20419;-58
2023/10/17 00:17:42;;;;;;;7.28;2.35;;;;;;;;;;5025916;28;20893;-57
2023/10/17 00:20:16;;;;;;;5.93;2.30;;;;;;;;;;5023436;28;20403;-57
2023/10/17 00:22:42;;;;;;;5.28;2.33;;;;;;;;;;5023719;28;20423;-58
2023/10/17 00:25:17;;;;;;;5.88;2.60;;;;;;;;;;5021313;28;20419;-57
2023/10/17 00:27:43;;;;;;;7.13;2.63;;;;;;;;;;5019171;28;20417;-58
2023/10/17 00:30:16;;;;;;;5.53;2.90;;;;;;;;;;5015654;28;20652;-58
2023/10/17 00:32:42;;;;;;;4.97;2.07;;;;;;;;;;5018910;28;20490;-58
2023/10/17 00:35:13;;;;;;;6.10;2.20;;;;;;;;;;5026378;28;20693;-58
2023/10/17 00:37:39;;;;;;;8.00;2.97;;;;;;;;;;5031490;28;20829;-57
2023/10/17 00:40:05;;;;;;;5.88;2.30;;;;;;;;;;5022511;28;20889;-58
2023/10/17 00:42:34;;;;;;;6.03;2.33;;;;;;;;;;5024186;28;20411;-58
2023/10/17 00:45:00;;;;;;;6.72;2.20;;;;;;;;;;5012399;28;20421;-58
2023/10/17 00:47:27;;;;;;;7.28;2.33;;;;;;;;;;5021967;28;20419;-57
2023/10/17 00:49:52;;;;;;;7.18;2.50;;;;;;;;;;5016909;28;20407;-57
2023/10/17 00:52:20;;;;;;;5.90;2.37;;;;;;;;;;5004709;28;20416;-57
2023/10/17 00:54:46;;;;;;;6.55;2.00;;;;;;;;;;5018402;28;20406;-57
2023/10/17 00:57:13;;;;;;;5.68;2.30;;;;;;;;;;5022887;28;20421;-58
2023/10/17 00:59:44;;;;;;;5.18;1.98;;;;;;;;;;5023519;28;20420;-57
2023/10/17 01:02:10;;;;;;;5.47;2.17;;;;;;;;;;5005508;28;20428;-58
2023/10/17 01:04:40;;;;;;;5.82;2.10;;;;;;;;;;5004552;28;20403;-57
2023/10/17 01:07:06;;;;;;;5.90;2.30;;;;;;;;;;5002852;28;20400;-58
2023/10/17 01:09:34;;;;;;;5.80;2.40;;;;;;;;;;5008868;28;20764;-58
2023/10/17 01:12:01;;;;;;;7.75;2.67;;;;;;;;;;4999690;28;20414;-57
2023/10/17 01:14:26;;;;;;;6.65;2.10;;;;;;;;;;4998845;28;20755;-58
2023/10/17 01:16:51;;;;;;;7.30;2.30;;;;;;;;;;5001993;28;20401;-58
2023/10/17 01:19:19;;;;;;;5.97;2.37;;;;;;;;;;5010336;28;20416;-58
2023/10/17 01:21:44;;;;;;;6.60;2.53;;;;;;;;;;5007742;28;20414;-57
2023/10/17 01:24:09;;;;;;;6.78;2.90;;;;;;;;;;5008084;28;20489;-57
2023/10/17 01:26:37;;;;;;;8.00;3.23;;;;;;;;;;5010449;28;20757;-58
2023/10/17 01:29:03;;;;;;;7.95;3.25;;;;;;;;;;5005680;28;20493;-58
2023/10/17 01:31:30;;;;;;;6.47;3.10;;;;;;;;;;5007720;28;20409;-58
2023/10/17 01:36:40;;;;;;;7.55;3.28;;;;;;;;;;5001796;28;20405;-58
2023/10/17 01:39:06;;;;;;;10.73;3.90;;;;;;;;;;5000022;28;20441;-58
2023/10/17 01:41:31;;;;;;;6.53;3.10;;;;;;;;;;5005301;28;20401;-58
2023/10/17 01:43:56;;;;;;;6.60;3.20;;;;;;;;;;5009945;28;21103;-57
2023/10/17 01:46:22;;;;;;;7.13;3.00;;;;;;;;;;5007484;28;21042;-57
2023/10/17 01:48:48;;;;;;;9.13;3.30;;;;;;;;;;5007348;28;20442;-58
2023/10/17 01:51:14;;;;;;;7.67;3.57;;;;;;;;;;5008121;28;20409;-57
2023/10/17 01:53:40;;;;;;;7.10;3.43;;;;;;;;;;5011776;28;20406;-57
2023/10/17 01:56:07;;;;;;;6.88;3.55;;;;;;;;;;5001550;28;20482;-58
2023/10/17 01:58:36;;;;;;;9.05;4.10;;;;;;;;;;4999452;28;20779;-58
2023/10/17 02:01:02;;;;;;;8.27;3.95;;;;;;;;;;5002751;28;20423;-58
2023/10/17 02:03:28;;;;;;;7.80;3.58;;;;;;;;;;5006924;28;20988;-58
2023/10/17 02:05:55;;;;;;;7.70;3.80;;;;;;;;;;5009739;28;20409;-58
2023/10/17 02:08:22;;;;;;;7.90;3.83;;;;;;;;;;5013685;28;20398;-57
2023/10/17 02:10:47;;;;;;;7.10;3.85;;;;;;;;;;5017290;28;20415;-57
2023/10/17 02:13:13;;;;;;;8.73;3.95;;;;;;;;;;5010339;28;20405;-58
2023/10/17 02:15:39;;;;;;;8.27;3.93;;;;;;;;;;5011919;28;20499;-58
2023/10/17 02:18:12;;;;;;;6.85;3.60;;;;;;;;;;5011548;28;20394;-58
2023/10/17 02:20:37;;;;;;;6.32;3.50;;;;;;;;;;5002471;28;20432;-58
2023/10/17 02:23:08;;;;;;;6.70;3.90;;;;;;;;;;5001443;28;20420;-58
2023/10/17 02:25:35;;;;;;;6.97;3.65;;;;;;;;;;5028023;28;20908;-58
2023/10/17 02:28:00;;;;;;;6.68;3.80;;;;;;;;;;5031651;28;20434;-59
2023/10/17 02:30:26;;;;;;;7.97;3.60;;;;;;;;;;5029741;28;20397;-58
2023/10/17 02:32:53;;;;;;;8.80;3.80;;;;;;;;;;5029104;28;20403;-58
2023/10/17 02:35:20;;;;;;;8.10;4.00;;;;;;;;;;5033651;28;20585;-58
2023/10/17 02:37:47;;;;;;;7.55;3.90;;;;;;;;;;5028956;28;20816;-57
2023/10/17 02:40:20;;;;;;;7.78;4.10;;;;;;;;;;5052506;28;20406;-57
2023/10/17 02:42:47;;;;;;;7.18;4.18;;;;;;;;;;5059294;28;20501;-57
2023/10/17 02:45:13;;;;;;;8.07;4.30;;;;;;;;;;5059990;28;20511;-57
2023/10/17 02:47:43;;;;;;;8.10;4.30;;;;;;;;;;5064063;28;20457;-58
2023/10/17 02:50:20;;;;;;;7.93;4.40;;;;;;;;;;5061815;28;20558;-57
2023/10/17 02:52:51;;;;;;;8.40;4.25;;;;;;;;;;5058592;28;20396;-58
2023/10/17 02:55:23;;;;;;;7.95;4.20;;;;;;;;;;5055216;28;20411;-57
2023/10/17 02:57:49;;;;;;;8.32;4.18;;;;;;;;;;5063920;28;20396;-57
2023/10/17 03:00:23;;;;;;;8.70;4.33;;;;;;;;;;5047347;28;20411;-58
2023/10/17 03:02:51;;;;;;;7.75;4.18;;;;;;;;;;4999794;28;20452;-57
2023/10/17 03:05:18;;;;;;;8.27;4.20;;;;;;;;;;4998262;28;20882;-58
2023/10/17 03:07:43;;;;;;;7.32;4.40;;;;;;;;;;4996078;28;20411;-58
2023/10/17 03:10:08;;;;;;;8.17;4.07;;;;;;;;;;5001717;28;20506;-58
2023/10/17 03:12:40;;;;;;;7.73;4.40;;;;;;;;;;5006084;28;20419;-58
2023/10/17 03:17:40;;;;;;;9.13;4.10;;;;;;;;;;5006742;28;20497;-58
2023/10/17 03:20:08;;;;;;;8.00;4.57;;;;;;;;;;5007555;28;21039;-58
2023/10/17 03:22:33;;;;;;;6.22;3.90;;;;;;;;;;5004519;28;20463;-58
2023/10/17 03:25:02;;;;;;;8.03;4.40;;;;;;;;;;5004751;28;20538;-58
2023/10/17 03:27:36;;;;;;;8.03;4.30;;;;;;;;;;4997110;28;20962;-57
2023/10/17 03:30:08;;;;;;;6.28;4.15;;;;;;;;;;5001133;28;20423;-58
2023/10/17 03:32:33;;;;;;;8.60;4.30;;;;;;;;;;4998776;28;20400;-58
2023/10/17 03:34:59;;;;;;;7.90;4.20;;;;;;;;;;5004580;28;20420;-58
2023/10/17 03:39:52;;;;;;;7.07;3.70;;;;;;;;;;5005950;28;20411;-57
2023/10/17 03:42:29;;;;;;;7.78;4.35;;;;;;;;;;5004177;28;20429;-58
2023/10/17 03:44:54;;;;;;;8.55;4.45;;;;;;;;;;5005094;28;20393;-57
2023/10/17 03:47:22;;;;;;;8.37;4.47;;;;;;;;;;5005389;28;20395;-57
2023/10/17 03:49:48;;;;;;;7.32;4.20;;;;;;;;;;4997014;28;20409;-57
2023/10/17 03:52:16;;;;;;;7.18;4.00;;;;;;;;;;4996038;28;21004;-58
2023/10/17 03:54:44;;;;;;;7.10;4.20;;;;;;;;;;4999343;28;20908;-58
2023/10/17 03:57:15;;;;;;;8.82;4.40;;;;;;;;;;5011930;28;20795;-58
2023/10/17 03:59:41;;;;;;;7.18;3.75;;;;;;;;;;5006556;28;21155;-58
2023/10/17 04:02:12;;;;;;;8.68;4.10;;;;;;;;;;5011412;28;20522;-58
2023/10/17 04:04:46;;;;;;;8.75;4.15;;;;;;;;;;5028161;28;20425;-58
2023/10/17 04:07:12;;;;;;;6.75;4.10;;;;;;;;;;5023571;28;21096;-57
2023/10/17 04:09:52;;;;;;;8.23;4.10;;;;;;;;;;5023788;28;20461;-58
2023/10/17 04:12:21;;;;;;;10.83;4.73;;;;;;;;;;5018193;28;20774;-57
2023/10/17 04:14:54;;;;;;;8.00;4.32;;;;;;;;;;5022656;28;20419;-57
2023/10/17 04:17:24;;;;;;;6.38;4.05;;;;;;;;;;5015177;28;20398;-58
2023/10/17 04:19:49;;;;;;;8.52;4.50;;;;;;;;;;5024614;28;20403;-58
2023/10/17 04:22:16;;;;;;;7.70;4.60;;;;;;;;;;5024963;28;20437;-58
2023/10/17 04:24:47;;;;;;;7.25;4.50;;;;;;;;;;5031559;28;20422;-58
2023/10/17 04:29:38;;;;;;;9.10;5.50;;;;;;;;;;5025213;28;20444;-58
2023/10/17 04:32:09;;;;;;;9.63;6.40;;;;;;;;;;5024530;28;20922;-57
2023/10/17 04:34:34;;;;;;;12.13;8.02;;;;;;;;;;5017881;28;20398;-57
2023/10/17 04:37:05;;;;;;;12.23;8.23;;;;;;;;;;5015590;28;20915;-57
2023/10/17 04:39:36;;;;;;;14.40;9.00;;;;;;;;;;5019325;28;20389;-58
2023/10/17 04:42:05;;;;;;;18.87;12.27;;;;;;;;;;5026522;28;20417;-58
2023/10/17 04:44:39;;;;;;;16.58;11.65;;;;;;;;;;5026817;28;20391;-57
2023/10/17 04:49:31;;;;;;;20.03;15.17;;;;;;;;;;5028917;28;20405;-58
2023/10/17 04:52:06;;;;;;;27.08;19.85;;;;;;;;;;5011790;28;20463;-58
2023/10/17 04:57:04;;;;;;;24.05;17.42;;;;;;;;;;5024789;28;20406;-58
2023/10/17 04:59:41;;;;;;;24.00;17.25;;;;;;;;;;5019923;28;20407;-58
2023/10/17 05:02:35;;;;;;;19.52;14.60;;;;;;;;;;5018237;28;20426;-58
2023/10/17 05:07:30;;;;;;;18.17;11.70;;;;;;;;;;5027604;28;20792;-58
2023/10/17 06:18:17;;;;;;;12.13;7.23;;;;;;;;;;5027981;28;20434;-58
2023/10/17 06:21:06;;;;;;;10.13;6.80;;;;;;;;;;5028309;28;20506;-58
2023/10/17 06:26:05;;;;;;;12.40;7.97;;;;;;;;;;5026780;28;20461;-58
2023/10/17 06:28:34;;;;;;;12.73;7.53;;;;;;;;;;5028991;28;20438;-58
2023/10/17 06:31:34;;;;;;;14.13;8.10;;;;;;;;;;5027827;28;20886;-58
2023/10/17 06:34:00;;;;;;;12.13;7.22;;;;;;;;;;5026803;28;20403;-58
2023/10/17 06:36:25;;;;;;;10.30;6.75;;;;;;;;;;5025882;28;20438;-58
2023/10/17 06:38:52;;;;;;;14.32;8.50;;;;;;;;;;5028104;28;20820;-58
2023/10/17 06:41:38;;;;;;;13.85;8.00;;;;;;;;;;5027666;28;20419;-58
2023/10/17 06:44:10;;;;;;;11.80;7.68;;;;;;;;;;5026312;28;20418;-58
2023/10/17 06:46:55;;;;;;;13.18;8.10;;;;;;;;;;5026588;28;20427;-58
2023/10/17 06:54:43;;;;;;;14.23;8.53;;;;;;;;;;5026950;28;20410;-57
2023/10/17 06:57:19;;;;;;;12.60;8.30;;;;;;;;;;5023182;28;20438;-57
2023/10/17 06:59:45;;;;;;;13.88;8.02;;;;;;;;;;5028658;28;20425;-58
2023/10/17 07:02:18;;;;;;;12.80;8.82;;;;;;;;;;5047312;28;20445;-58
2023/10/17 07:04:44;;;;;;;13.75;8.63;;;;;;;;;;5045943;28;20879;-58
2023/10/17 07:07:10;;;;;;;15.00;8.85;;;;;;;;;;5044432;28;20402;-58
2023/10/17 07:09:38;;;;;;;13.43;8.20;;;;;;;;;;5047302;28;20880;-58
2023/10/17 07:12:04;;;;;;;12.63;8.60;;;;;;;;;;5047046;28;20475;-57
2023/10/17 07:14:29;;;;;;;14.85;9.18;;;;;;;;;;5044914;28;20484;-58
2023/10/17 07:17:01;;;;;;;13.13;8.40;;;;;;;;;;5047807;28;20493;-58
2023/10/17 07:22:08;;;;;;;13.63;8.67;;;;;;;;;;5045373;28;20413;-58
2023/10/17 07:24:35;;;;;;;13.27;8.18;;;;;;;;;;5045654;28;20401;-57
2023/10/17 07:27:01;;;;;;;12.13;8.05;;;;;;;;;;5046732;28;20408;-58
2023/10/17 07:29:26;;;;;;;14.38;8.10;;;;;;;;;;5047203;28;20393;-58
2023/10/17 07:31:53;;;;;;;13.63;8.13;;;;;;;;;;5044877;28;20443;-58
2023/10/17 07:34:21;;;;;;;14.55;8.50;;;;;;;;;;5046074;28;20765;-57
2023/10/17 07:36:50;;;;;;;12.60;8.00;;;;;;;;;;5047084;28;20413;-58
2023/10/17 07:39:22;;;;;;;11.07;7.93;;;;;;;;;;5045050;28;20409;-58
2023/10/17 07:41:54;;;;;;;11.60;7.57;;;;;;;;;;5045236;28;20468;-58
2023/10/17 07:44:21;;;;;;;12.63;7.50;;;;;;;;;;5046397;28;20402;-57
2023/10/17 07:46:48;;;;;;;14.07;7.57;;;;;;;;;;5047200;28;20923;-57
2023/10/17 07:49:16;;;;;;;12.95;7.55;;;;;;;;;;5043942;28;20523;-58
2023/10/17 07:51:42;;;;;;;11.77;7.25;;;;;;;;;;5046854;28;20401;-58
2023/10/17 07:54:08;;;;;;;10.20;7.40;;;;;;;;;;5046639;28;20410;-58
2023/10/17 07:56:33;;;;;;;11.43;7.27;;;;;;;;;;5045186;28;20791;-58
2023/10/17 07:59:04;;;;;;;13.70;7.43;;;;;;;;;;5045810;28;20425;-58
2023/10/17 08:01:32;;;;;;;12.43;7.15;;;;;;;;;;5046084;28;20405;-58
2023/10/17 08:04:13;;;;;;;10.18;7.10;;;;;;;;;;5046530;28;20401;-57
2023/10/17 08:06:38;;;;;;;12.45;7.20;;;;;;;;;;5043960;28;20397;-58
2023/10/17 08:09:16;;;;;;;9.93;6.97;;;;;;;;;;5045200;28;21049;-57
2023/10/17 08:11:42;;;;;;;10.90;5.90;;;;;;;;;;5046973;28;20749;-58
2023/10/17 08:14:09;;;;;;;8.95;6.40;;;;;;;;;;5046088;28;20402;-58
2023/10/17 08:16:39;;;;;;;9.67;6.20;;;;;;;;;;5044446;28;20413;-57
2023/10/17 08:19:21;;;;;;;11.03;6.60;;;;;;;;;;5050399;28;20417;-58
2023/10/17 08:24:26;;;;;;;11.05;6.82;;;;;;;;;;5048800;28;20473;-58
2023/10/17 08:27:13;;;;;;;10.52;6.63;;;;;;;;;;5048984;28;20458;-57
2023/10/17 08:29:38;;;;;;;10.10;6.47;;;;;;;;;;5049662;28;20377;-58
2023/10/17 08:32:14;;;;;;;10.57;6.53;;;;;;;;;;5050055;28;20436;-58
2023/10/17 08:34:42;;;;;;;10.25;6.88;;;;;;;;;;5049739;28;20481;-58
2023/10/17 08:37:07;;;;;;;9.30;6.47;;;;;;;;;;5047333;28;20504;-58
2023/10/17 08:39:51;;;;;;;10.67;6.80;;;;;;;;;;5050791;28;20516;-58
2023/10/17 08:42:25;;;;;;;10.03;6.67;;;;;;;;;;5049614;28;20444;-57
2023/10/17 08:44:50;;;;;;;10.18;6.65;;;;;;;;;;5048850;28;20397;-58
2023/10/17 08:47:18;;;;;;;9.80;6.47;;;;;;;;;;5048731;28;20691;-57
2023/10/17 08:49:44;;;;;;;10.43;6.80;;;;;;;;;;5052460;28;20401;-58
2023/10/17 08:52:22;;;;;;;9.35;6.43;;;;;;;;;;5051103;28;20957;-58
2023/10/17 08:54:48;;;;;;;10.55;6.75;;;;;;;;;;5049318;28;20427;-57
2023/10/17 08:57:13;;;;;;;9.27;6.63;;;;;;;;;;5032304;28;20416;-57
2023/10/17 09:02:15;;;;;;;9.82;6.45;;;;;;;;;;5065333;28;20862;-58
2023/10/17 09:04:42;;;;;;;10.73;6.27;;;;;;;;;;5060558;28;20411;-58
2023/10/17 09:07:08;;;;;;;9.43;6.78;;;;;;;;;;5059844;28;20504;-58
2023/10/17 09:09:34;;;;;;;10.20;6.35;;;;;;;;;;5066221;28;20489;-58
2023/10/17 09:12:26;;;;;;;11.07;6.93;;;;;;;;;;5062657;28;20434;-58
2023/10/17 09:14:56;;;;;;;10.35;6.57;;;;;;;;;;5047176;28;20439;-58
2023/10/17 09:19:52;;;;;;;10.23;6.43;;;;;;;;;;5065469;28;20420;-58
2023/10/17 09:22:36;;;;;;;10.13;6.30;;;;;;;;;;5062111;28;20771;-58
2023/10/17 09:25:12;;;;;;;9.75;6.00;;;;;;;;;;5061522;28;20406;-58
2023/10/17 09:27:37;;;;;;;8.82;6.03;;;;;;;;;;5065278;28;20491;-58
2023/10/17 09:30:05;;;;;;;9.10;6.07;;;;;;;;;;5039575;28;20401;-58
2023/10/17 09:32:32;;;;;;;8.73;6.00;;;;;;;;;;5044298;28;20403;-58
2023/10/17 09:34:59;;;;;;;8.40;6.00;;;;;;;;;;5063579;28;20402;-58
2023/10/17 09:37:27;;;;;;;10.57;5.97;;;;;;;;;;5064975;28;20392;-58
2023/10/17 09:39:52;;;;;;;10.90;5.75;;;;;;;;;;5046241;28;20403;-58
2023/10/17 09:42:17;;;;;;;8.57;5.87;;;;;;;;;;5042958;28;20424;-58
2023/10/17 09:44:43;;;;;;;9.17;5.40;;;;;;;;;;5063377;28;20400;-58
2023/10/17 09:47:08;;;;;;;9.63;5.17;;;;;;;;;;5064759;28;20444;-58
2023/10/17 09:49:35;;;;;;;8.02;5.20;;;;;;;;;;5060359;28;20429;-58
2023/10/17 09:52:01;;;;;;;8.52;5.22;;;;;;;;;;5064682;28;20754;-59
2023/10/17 09:54:27;;;;;;;10.90;5.60;;;;;;;;;;5046626;28;20402;-58
2023/10/17 09:56:52;;;;;;;8.13;4.82;;;;;;;;;;5044342;28;20753;-58
2023/10/17 09:59:20;;;;;;;8.93;4.97;;;;;;;;;;5044669;28;20534;-58
2023/10/17 10:01:46;;;;;;;8.90;4.88;;;;;;;;;;5049482;28;20413;-57
2023/10/17 10:04:11;;;;;;;8.10;4.82;;;;;;;;;;5031791;28;20726;-58
2023/10/17 10:06:37;;;;;;;8.05;4.82;;;;;;;;;;5046350;28;20729;-58
2023/10/17 10:09:14;;;;;;;10.18;4.93;;;;;;;;;;5047843;28;20438;-58
2023/10/17 10:11:49;;;;;;;8.02;4.57;;;;;;;;;;5049138;28;20438;-58
2023/10/17 10:14:15;;;;;;;9.07;4.50;;;;;;;;;;5047132;28;20492;-58
2023/10/17 10:16:49;;;;;;;8.25;4.57;;;;;;;;;;5046624;28;20409;-58
2023/10/17 10:19:15;;;;;;;8.57;4.80;;;;;;;;;;5048150;28;20405;-58
2023/10/17 10:21:50;;;;;;;8.32;4.47;;;;;;;;;;5048568;28;20412;-58
2023/10/17 10:24:18;;;;;;;7.70;4.50;;;;;;;;;;5045339;28;20417;-58
2023/10/17 10:26:43;;;;;;;7.40;4.30;;;;;;;;;;5047614;28;20488;-58
2023/10/17 10:29:21;;;;;;;7.60;4.60;;;;;;;;;;5046981;28;20831;-58
2023/10/17 10:31:46;;;;;;;7.95;4.38;;;;;;;;;;5047150;28;20428;-58
2023/10/17 10:34:11;;;;;;;8.20;4.40;;;;;;;;;;5029707;28;20815;-58
2023/10/17 10:36:37;;;;;;;7.47;4.37;;;;;;;;;;5047804;28;20397;-58
2023/10/17 10:39:12;;;;;;;7.28;4.03;;;;;;;;;;5047757;28;20967;-58
2023/10/17 10:41:37;;;;;;;8.93;4.38;;;;;;;;;;5045689;28;20410;-58
2023/10/17 10:44:03;;;;;;;7.97;4.00;;;;;;;;;;5046205;28;20917;-58
2023/10/17 10:46:28;;;;;;;7.23;4.27;;;;;;;;;;5048307;28;20405;-58
2023/10/17 10:48:53;;;;;;;7.90;4.17;;;;;;;;;;5031435;28;20907;-58
2023/10/17 10:51:19;;;;;;;7.97;4.80;;;;;;;;;;5044878;28;20484;-58
2023/10/17 10:53:49;;;;;;;8.70;4.25;;;;;;;;;;5047702;28;20398;-58
2023/10/17 10:56:15;;;;;;;7.22;4.25;;;;;;;;;;5047037;28;20416;-58
2023/10/17 10:58:47;;;;;;;6.95;3.92;;;;;;;;;;5035003;28;20397;-58
2023/10/17 11:01:13;;;;;;;6.97;3.90;;;;;;;;;;5046586;28;20425;-58
2023/10/17 11:03:39;;;;;;;8.70;3.80;;;;;;;;;;5047659;28;20412;-58
2023/10/17 11:06:04;;;;;;;6.88;3.70;;;;;;;;;;5045938;28;20429;-58
2023/10/17 11:08:37;;;;;;;7.03;3.73;;;;;;;;;;5046023;28;20416;-58
2023/10/17 11:11:03;;;;;;;7.70;3.70;;;;;;;;;;5046591;28;20413;-58
2023/10/17 11:13:34;;;;;;;7.38;3.40;;;;;;;;;;5047007;28;20480;-58
2023/10/17 11:16:00;;;;;;;7.53;3.47;;;;;;;;;;5045822;28;20480;-58
2023/10/17 11:18:25;;;;;;;6.90;3.10;;;;;;;;;;5046467;28;20484;-58
2023/10/17 11:20:54;;;;;;;7.20;3.57;;;;;;;;;;5030319;28;20547;-58
2023/10/17 11:23:19;;;;;;;5.88;3.13;;;;;;;;;;5046300;28;20776;-58
2023/10/17 11:25:45;;;;;;;6.23;2.97;;;;;;;;;;5044873;28;20926;-58
2023/10/17 11:28:10;;;;;;;5.87;3.00;;;;;;;;;;5047097;28;20550;-58
2023/10/17 11:30:40;;;;;;;6.50;3.45;;;;;;;;;;5038576;28;20428;-58
2023/10/17 11:33:05;;;;;;;7.50;3.10;;;;;;;;;;5043590;28;20401;-58
2023/10/17 11:35:32;;;;;;;5.73;3.10;;;;;;;;;;5047178;28;20394;-58
2023/10/17 11:37:58;;;;;;;4.93;3.08;;;;;;;;;;5047275;28;20413;-58
2023/10/17 11:40:44;;;;;;;6.97;3.03;;;;;;;;;;5045054;28;20393;-58
2023/10/17 11:43:17;;;;;;;7.13;3.13;;;;;;;;;;5044868;28;20430;-58
2023/10/17 11:45:44;;;;;;;5.40;2.60;;;;;;;;;;5046808;28;20519;-58
2023/10/17 11:48:23;;;;;;;5.20;2.80;;;;;;;;;;5045813;28;20484;-58
2023/10/17 11:50:50;;;;;;;7.32;2.85;;;;;;;;;;5045707;28;20496;-58
2023/10/17 11:53:16;;;;;;;6.22;2.70;;;;;;;;;;5044611;28;20397;-58
2023/10/17 11:55:43;;;;;;;5.45;2.58;;;;;;;;;;5046108;28;20393;-58
2023/10/17 11:58:09;;;;;;;6.73;2.83;;;;;;;;;;5046588;28;20397;-58
2023/10/17 12:00:35;;;;;;;6.30;2.57;;;;;;;;;;5049046;28;20454;-58
2023/10/17 12:03:02;;;;;;;4.80;2.50;;;;;;;;;;5061861;28;21481;-59
2023/10/17 12:05:27;;;;;;;6.57;2.80;;;;;;;;;;5062634;28;20406;-58
2023/10/17 12:07:54;;;;;;;4.70;2.47;;;;;;;;;;5059314;28;20741;-58
2023/10/17 12:10:20;;;;;;;5.68;2.40;;;;;;;;;;5060777;28;20404;-58
2023/10/17 12:12:45;;;;;;;5.77;2.40;;;;;;;;;;5062096;28;20454;-58
2023/10/17 12:15:13;;;;;;;5.55;2.30;;;;;;;;;;5060824;28;20473;-58
2023/10/17 12:17:40;;;;;;;4.30;2.40;;;;;;;;;;5058350;28;20419;-58
2023/10/17 12:20:12;;;;;;;5.03;2.37;;;;;;;;;;5062095;28;20518;-58
2023/10/17 12:22:38;;;;;;;4.65;2.20;;;;;;;;;;5062090;28;20435;-58
2023/10/17 12:25:04;;;;;;;6.00;2.13;;;;;;;;;;5058785;28;20430;-58
2023/10/17 12:27:30;;;;;;;5.13;1.95;;;;;;;;;;5060626;28;20766;-58
2023/10/17 12:29:56;;;;;;;4.50;2.20;;;;;;;;;;5059975;28;20408;-58
2023/10/17 12:32:21;;;;;;;4.13;2.20;;;;;;;;;;5060749;28;20388;-58
2023/10/17 12:34:49;;;;;;;5.37;1.80;;;;;;;;;;5058837;28;21067;-58
2023/10/17 12:37:15;;;;;;;6.10;2.03;;;;;;;;;;5061714;28;20401;-58
2023/10/17 12:39:42;;;;;;;5.93;2.00;;;;;;;;;;5062825;28;20750;-58
2023/10/17 12:42:07;;;;;;;5.18;1.88;;;;;;;;;;5056855;28;20914;-58
2023/10/17 12:44:33;;;;;;;5.67;2.10;;;;;;;;;;5061869;28;20453;-58
2023/10/17 12:46:58;;;;;;;5.17;1.80;;;;;;;;;;5062720;28;20438;-57
2023/10/17 12:49:24;;;;;;;3.88;1.90;;;;;;;;;;5059282;28;20486;-58
2023/10/17 12:51:49;;;;;;;4.13;1.90;;;;;;;;;;5059951;28;20463;-58
2023/10/17 12:54:14;;;;;;;4.82;1.80;;;;;;;;;;5062181;28;20777;-58
2023/10/17 12:56:40;;;;;;;4.90;2.00;;;;;;;;;;5061421;28;20749;-58
2023/10/17 12:59:12;;;;;;;4.57;1.80;;;;;;;;;;5057112;28;20415;-58
2023/10/17 13:01:37;;;;;;;5.28;2.08;;;;;;;;;;5061707;28;20407;-58
2023/10/17 13:04:03;;;;;;;3.75;1.80;;;;;;;;;;5062385;28;20452;-58
2023/10/17 13:06:28;;;;;;;4.90;2.07;;;;;;;;;;5060960;28;20475;-58
2023/10/17 13:09:00;;;;;;;5.53;2.20;;;;;;;;;;5064601;28;20894;-58
2023/10/17 13:11:26;;;;;;;4.38;1.95;;;;;;;;;;5047677;28;20410;-58
2023/10/17 13:13:52;;;;;;;4.88;2.03;;;;;;;;;;5063973;28;20398;-58
2023/10/17 13:16:17;;;;;;;3.70;1.83;;;;;;;;;;5061275;28;20407;-58
2023/10/17 13:18:44;;;;;;;4.60;1.95;;;;;;;;;;5061269;28;20410;-58
2023/10/17 13:21:15;;;;;;;5.22;1.95;;;;;;;;;;5065186;28;20481;-58
2023/10/17 13:23:40;;;;;;;5.43;1.90;;;;;;;;;;5061460;28;20392;-58
2023/10/17 13:26:12;;;;;;;4.37;1.80;;;;;;;;;;5063900;28;20417;-58
2023/10/17 13:28:38;;;;;;;5.00;1.80;;;;;;;;;;5065201;28;20421;-58
2023/10/17 13:31:11;;;;;;;5.73;1.90;;;;;;;;;;5058315;28;20405;-59
2023/10/17 13:33:38;;;;;;;4.13;2.00;;;;;;;;;;5037111;28;21407;-58
2023/10/17 13:36:05;;;;;;;4.30;1.90;;;;;;;;;;5030584;28;20849;-58
2023/10/17 13:38:30;;;;;;;3.78;1.95;;;;;;;;;;5025801;28;21158;-58
2023/10/17 13:41:02;;;;;;;3.97;1.90;;;;;;;;;;5034429;28;20422;-58
2023/10/17 13:43:27;;;;;;;3.88;2.00;;;;;;;;;;5026598;28;20399;-58
2023/10/17 13:45:53;;;;;;;5.67;2.20;;;;;;;;;;5033787;28;20419;-57
2023/10/17 13:48:18;;;;;;;4.03;2.10;;;;;;;;;;5040028;28;20451;-58
2023/10/17 13:50:43;;;;;;;7.03;2.40;;;;;;;;;;5039772;28;20516;-58
2023/10/17 13:53:14;;;;;;;4.47;2.10;;;;;;;;;;5033325;28;20535;-58
2023/10/17 13:55:41;;;;;;;4.05;2.20;;;;;;;;;;5029660;28;20399;-58
2023/10/17 13:58:06;;;;;;;4.82;2.10;;;;;;;;;;5030184;28;20401;-58
2023/10/17 14:00:44;;;;;;;5.53;2.20;;;;;;;;;;5025380;28;20789;-58
2023/10/17 14:03:12;;;;;;;4.73;2.10;;;;;;;;;;5026786;28;20417;-58
2023/10/17 14:05:41;;;;;;;5.32;2.17;;;;;;;;;;5031746;28;20417;-58
2023/10/17 14:08:07;;;;;;;4.43;1.90;;;;;;;;;;5032769;28;20479;-58
2023/10/17 14:10:32;;;;;;;4.33;2.13;;;;;;;;;;5031341;28;20801;-58
2023/10/17 14:12:57;;;;;;;4.50;1.93;;;;;;;;;;5030478;28;20399;-58
2023/10/17 14:15:23;;;;;;;3.90;2.10;;;;;;;;;;5031273;28;20405;-57
2023/10/17 14:17:53;;;;;;;4.97;1.90;;;;;;;;;;5030138;28;20744;-58
2023/10/17 14:20:28;;;;;;;5.00;2.42;;;;;;;;;;5021760;28;20437;-58
2023/10/17 14:26:07;;;;;;;4.80;2.17;;;;;;;;;;5027295;28;20888;-58
2023/10/17 14:28:18;;;;;;;4.28;2.00;;;;;;;;;;5035913;28;20477;-58
2023/10/17 14:30:43;;;;;;;3.90;1.83;;;;;;;;;;5029410;28;20442;-58
2023/10/17 14:33:09;;;;;;;3.70;1.97;;;;;;;;;;5039317;28;20399;-58
2023/10/17 14:35:34;;;;;;;4.13;1.95;;;;;;;;;;5042945;28;20397;-58
2023/10/17 14:38:00;;;;;;;4.13;2.08;;;;;;;;;;5050802;28;20533;-58
2023/10/17 14:40:28;;;;;;;5.00;2.00;;;;;;;;;;5049588;28;20402;-57
2023/10/17 14:42:53;;;;;;;4.33;2.07;;;;;;;;;;5046942;28;20409;-57
2023/10/17 14:45:18;;;;;;;4.68;1.95;;;;;;;;;;5046414;28;20462;-58
2023/10/17 14:47:43;;;;;;;4.95;2.10;;;;;;;;;;5048431;28;20412;-58
2023/10/17 14:50:09;;;;;;;3.90;1.90;;;;;;;;;;5046784;28;20761;-58
2023/10/17 14:52:34;;;;;;;4.80;2.20;;;;;;;;;;5046273;28;20405;-58
2023/10/17 14:55:02;;;;;;;4.77;2.00;;;;;;;;;;5049898;28;20397;-58
2023/10/17 14:57:28;;;;;;;4.68;2.15;;;;;;;;;;5050925;28;20857;-58
2023/10/17 14:59:54;;;;;;;5.10;2.07;;;;;;;;;;5053131;28;20456;-58
2023/10/17 15:02:19;;;;;;;4.32;1.90;;;;;;;;;;5069945;28;20408;-58
2023/10/17 15:04:46;;;;;;;4.57;2.10;;;;;;;;;;5070225;28;20400;-58
2023/10/17 15:07:12;;;;;;;4.80;1.80;;;;;;;;;;5040427;28;20402;-58
2023/10/17 15:09:37;;;;;;;5.65;2.05;;;;;;;;;;5038769;28;20389;-58
2023/10/17 15:12:03;;;;;;;4.43;2.00;;;;;;;;;;5037695;28;20403;-58
2023/10/17 15:14:29;;;;;;;3.80;2.00;;;;;;;;;;5049041;28;20896;-58
2023/10/17 15:16:54;;;;;;;4.00;2.07;;;;;;;;;;5049965;28;20402;-58
2023/10/17 15:19:20;;;;;;;3.80;1.90;;;;;;;;;;5039271;28;20444;-58
2023/10/17 15:21:45;;;;;;;4.60;2.10;;;;;;;;;;5030490;28;20415;-58
2023/10/17 15:24:12;;;;;;;4.97;1.83;;;;;;;;;;5029729;28;20458;-58
2023/10/17 15:26:38;;;;;;;3.65;1.80;;;;;;;;;;5029285;28;20395;-58
2023/10/17 15:29:03;;;;;;;6.10;2.07;;;;;;;;;;5030693;28;20901;-58
2023/10/17 15:31:28;;;;;;;4.47;1.90;;;;;;;;;;5035033;28;20408;-57
2023/10/17 15:33:55;;;;;;;5.25;2.05;;;;;;;;;;5048638;28;20555;-58
2023/10/17 15:36:20;;;;;;;4.63;2.20;;;;;;;;;;5027798;28;26125;-58
2023/10/17 15:38:46;;;;;;;5.73;2.40;;;;;;;;;;5032728;28;20468;-58
2023/10/17 15:41:12;;;;;;;4.60;1.90;;;;;;;;;;5044821;28;20420;-58
2023/10/17 15:43:39;;;;;;;4.90;2.00;;;;;;;;;;5043558;28;20456;-58
2023/10/17 15:46:04;;;;;;;4.65;1.88;;;;;;;;;;5060959;28;20396;-58
2023/10/17 15:48:31;;;;;;;4.73;1.63;;;;;;;;;;5070047;28;20467;-58
2023/10/17 15:50:56;;;;;;;4.38;1.90;;;;;;;;;;5069648;28;20453;-58
2023/10/17 15:53:22;;;;;;;5.83;1.90;;;;;;;;;;5068956;28;20395;-58
2023/10/17 15:55:55;;;;;;;4.10;1.67;;;;;;;;;;5069844;28;21040;-58
2023/10/17 15:58:21;;;;;;;4.05;1.90;;;;;;;;;;5051043;28;20889;-58
2023/10/17 16:00:46;;;;;;;4.05;1.80;;;;;;;;;;5068999;28;20407;-58
2023/10/17 16:03:18;;;;;;;4.83;1.87;;;;;;;;;;5069023;28;20416;-58
2023/10/17 16:05:44;;;;;;;4.50;1.70;;;;;;;;;;5069499;28;20404;-58
2023/10/17 16:08:10;;;;;;;4.00;1.92;;;;;;;;;;5068695;28;20404;-58
2023/10/17 16:10:36;;;;;;;4.25;1.65;;;;;;;;;;5069896;28;20780;-58
2023/10/17 16:13:02;;;;;;;4.20;1.77;;;;;;;;;;5068604;28;20982;-58
2023/10/17 16:15:28;;;;;;;5.80;1.87;;;;;;;;;;5069093;28;20404;-59
2023/10/17 16:17:53;;;;;;;3.45;1.85;;;;;;;;;;5062376;28;20406;-57
2023/10/17 16:20:19;;;;;;;5.97;1.90;;;;;;;;;;5049054;28;20397;-57
2023/10/17 16:22:44;;;;;;;4.03;1.88;;;;;;;;;;5048890;28;20402;-58
2023/10/17 16:25:13;;;;;;;5.50;1.90;;;;;;;;;;5048953;28;20900;-58
2023/10/17 16:27:38;;;;;;;5.13;1.95;;;;;;;;;;5049214;28;20832;-57
2023/10/17 16:30:05;;;;;;;5.28;2.17;;;;;;;;;;5048459;28;20969;-57
2023/10/17 16:32:32;;;;;;;4.57;2.20;;;;;;;;;;5048894;28;20423;-58